sensor_id;sensor_type;location;lat;lon;timestamp;temperature;humidity
16838;DHT22;19510;54.486;9.046;2024-02-21T00:02:02;9.20;99.90
16838;DHT22;19510;54.486;9.046;2024-02-21T00:04:30;9.20;99.90
16838;DHT22;19510;54.486;9.046;2024-02-21T00:06:58;9.20;99.90
16838;DHT22;19510;54.486;9.046;2024-02-21T00:09:24;9.30;99.90
16838;DHT22;19510;54.486;9.046;2024-02-21T00:11:49;9.30;99.90
16838;DHT22;19510;54.486;9.046;2024-02-21T00:14:15;9.30;99.90
16838;DHT22;19510;54.486;9.046;2024-02-21T00:16:41;9.30;99.90
16838;DHT22;19510;54.486;9.046;2024-02-21T00:19:09;9.30;99.90
16838;DHT22;19510;54.486;9.046;2024-02-21T00:21:35;9.30;99.90
16838;DHT22;19510;54.486;9.046;2024-02-21T00:24:03;9.30;99.90
16838;DHT22;19510;54.486;9.046;2024-02-21T00:26:31;9.30;99.90
16838;DHT22;19510;54.486;9.046;2024-02-21T00:28:59;9.30;99.90
16838;DHT22;19510;54.486;9.046;2024-02-21T00:31:27;9.30;99.90
16838;DHT22;19510;54.486;9.046;2024-02-21T00:33:53;9.30;99.90
16838;DHT22;19510;54.486;9.046;2024-02-21T00:36:19;9.30;99.90
16838;DHT22;19510;54.486;9.046;2024-02-21T00:38:47;9.30;99.90
16838;DHT22;19510;54.486;9.046;2024-02-21T00:41:13;9.30;99.90
16838;DHT22;19510;54.486;9.046;2024-02-21T00:43:38;9.30;99.90
16838;DHT22;19510;54.486;9.046;2024-02-21T00:46:06;9.30;99.90
16838;DHT22;19510;54.486;9.046;2024-02-21T00:48:35;9.30;99.90
16838;DHT22;19510;54.486;9.046;2024-02-21T00:51:01;9.30;99.90
16838;DHT22;19510;54.486;9.046;2024-02-21T00:53:26;9.30;99.90
16838;DHT22;19510;54.486;9.046;2024-02-21T00:55:52;9.20;99.90
16838;DHT22;19510;54.486;9.046;2024-02-21T00:58:20;9.30;99.90
16838;DHT22;19510;54.486;9.046;2024-02-21T01:00:48;9.30;99.90
16838;DHT22;19510;54.486;9.046;2024-02-21T01:03:14;9.20;99.90
16838;DHT22;19510;54.486;9.046;2024-02-21T01:05:39;9.20;99.90
16838;DHT22;19510;54.486;9.046;2024-02-21T01:08:05;9.30;99.90
16838;DHT22;19510;54.486;9.046;2024-02-21T01:10:31;9.30;99.90
16838;DHT22;19510;54.486;9.046;2024-02-21T01:12:57;9.30;99.90
16838;DHT22;19510;54.486;9.046;2024-02-21T01:15:27;9.30;99.90
16838;DHT22;19510;54.486;9.046;2024-02-21T01:17:52;9.30;99.90
16838;DHT22;19510;54.486;9.046;2024-02-21T01:20:20;9.30;99.90
16838;DHT22;19510;54.486;9.046;2024-02-21T01:22:46;9.30;99.90
16838;DHT22;19510;54.486;9.046;2024-02-21T01:25:14;9.30;99.90
16838;DHT22;19510;54.486;9.046;2024-02-21T01:27:40;9.20;99.90
16838;DHT22;19510;54.486;9.046;2024-02-21T01:30:06;9.20;99.90
16838;DHT22;19510;54.486;9.046;2024-02-21T01:32:32;9.20;99.90
16838;DHT22;19510;54.486;9.046;2024-02-21T01:34:58;9.20;99.90
16838;DHT22;19510;54.486;9.046;2024-02-21T01:37:23;9.20;99.90
16838;DHT22;19510;54.486;9.046;2024-02-21T01:39:49;9.10;99.90
16838;DHT22;19510;54.486;9.046;2024-02-21T01:42:17;9.20;99.90
16838;DHT22;19510;54.486;9.046;2024-02-21T01:44:43;9.20;99.90
16838;DHT22;19510;54.486;9.046;2024-02-21T01:47:08;9.20;99.90
16838;DHT22;19510;54.486;9.046;2024-02-21T01:49:34;9.10;99.90
16838;DHT22;19510;54.486;9.046;2024-02-21T01:52:03;9.10;99.90
16838;DHT22;19510;54.486;9.046;2024-02-21T01:54:29;9.10;99.90
16838;DHT22;19510;54.486;9.046;2024-02-21T01:56:56;9.10;99.90
16838;DHT22;19510;54.486;9.046;2024-02-21T01:59:22;9.00;99.90
16838;DHT22;19510;54.486;9.046;2024-02-21T02:01:50;9.00;99.90
16838;DHT22;19510;54.486;9.046;2024-02-21T02:04:20;8.90;99.90
16838;DHT22;19510;54.486;9.046;2024-02-21T02:06:46;8.90;99.90
16838;DHT22;19510;54.486;9.046;2024-02-21T02:09:12;8.90;99.90
16838;DHT22;19510;54.486;9.046;2024-02-21T02:11:37;8.90;99.90
16838;DHT22;19510;54.486;9.046;2024-02-21T02:14:03;8.90;99.90
16838;DHT22;19510;54.486;9.046;2024-02-21T02:16:29;8.90;99.90
16838;DHT22;19510;54.486;9.046;2024-02-21T02:18:54;8.90;99.90
16838;DHT22;19510;54.486;9.046;2024-02-21T02:21:29;8.90;99.90
16838;DHT22;19510;54.486;9.046;2024-02-21T02:23:59;8.90;99.90
16838;DHT22;19510;54.486;9.046;2024-02-21T02:26:25;8.90;99.90
16838;DHT22;19510;54.486;9.046;2024-02-21T02:28:50;8.90;99.90
16838;DHT22;19510;54.486;9.046;2024-02-21T02:31:16;8.80;99.90
16838;DHT22;19510;54.486;9.046;2024-02-21T02:33:45;8.80;99.90
16838;DHT22;19510;54.486;9.046;2024-02-21T02:36:13;8.90;99.90
16838;DHT22;19510;54.486;9.046;2024-02-21T02:38:39;8.90;99.90
16838;DHT22;19510;54.486;9.046;2024-02-21T02:41:05;8.80;99.90
16838;DHT22;19510;54.486;9.046;2024-02-21T02:43:30;8.80;99.90
16838;DHT22;19510;54.486;9.046;2024-02-21T02:45:56;8.80;99.90
16838;DHT22;19510;54.486;9.046;2024-02-21T02:48:22;8.80;99.90
16838;DHT22;19510;54.486;9.046;2024-02-21T02:50:50;8.70;99.90
16838;DHT22;19510;54.486;9.046;2024-02-21T02:53:16;8.70;99.90
16838;DHT22;19510;54.486;9.046;2024-02-21T02:55:42;8.70;99.90
16838;DHT22;19510;54.486;9.046;2024-02-21T02:58:08;8.70;99.90
16838;DHT22;19510;54.486;9.046;2024-02-21T03:00:34;8.70;99.90
16838;DHT22;19510;54.486;9.046;2024-02-21T03:03:01;8.70;99.90
16838;DHT22;19510;54.486;9.046;2024-02-21T03:05:30;8.70;99.90
16838;DHT22;19510;54.486;9.046;2024-02-21T03:07:58;8.70;99.90
16838;DHT22;19510;54.486;9.046;2024-02-21T03:10:25;8.70;99.90
16838;DHT22;19510;54.486;9.046;2024-02-21T03:12:54;8.70;99.90
16838;DHT22;19510;54.486;9.046;2024-02-21T03:15:20;8.60;99.90
16838;DHT22;19510;54.486;9.046;2024-02-21T03:17:46;8.60;99.90
16838;DHT22;19510;54.486;9.046;2024-02-21T03:20:15;8.60;99.90
16838;DHT22;19510;54.486;9.046;2024-02-21T03:22:45;8.60;99.90
16838;DHT22;19510;54.486;9.046;2024-02-21T03:25:13;8.50;99.90
16838;DHT22;19510;54.486;9.046;2024-02-21T03:27:40;8.50;99.90
16838;DHT22;19510;54.486;9.046;2024-02-21T03:30:09;8.50;99.90
16838;DHT22;19510;54.486;9.046;2024-02-21T03:32:39;8.50;99.90
16838;DHT22;19510;54.486;9.046;2024-02-21T03:35:05;8.50;99.90
16838;DHT22;19510;54.486;9.046;2024-02-21T03:37:35;8.50;99.90
16838;DHT22;19510;54.486;9.046;2024-02-21T03:40:01;8.50;99.90
16838;DHT22;19510;54.486;9.046;2024-02-21T03:42:30;8.50;99.90
16838;DHT22;19510;54.486;9.046;2024-02-21T03:44:59;8.50;99.90
16838;DHT22;19510;54.486;9.046;2024-02-21T03:47:26;8.50;99.90
16838;DHT22;19510;54.486;9.046;2024-02-21T03:49:52;8.50;99.90
16838;DHT22;19510;54.486;9.046;2024-02-21T03:52:18;8.40;99.90
16838;DHT22;19510;54.486;9.046;2024-02-21T03:54:46;8.40;99.90
16838;DHT22;19510;54.486;9.046;2024-02-21T03:57:12;8.50;99.90
16838;DHT22;19510;54.486;9.046;2024-02-21T03:59:37;8.40;99.90
16838;DHT22;19510;54.486;9.046;2024-02-21T04:02:06;8.40;99.90
16838;DHT22;19510;54.486;9.046;2024-02-21T04:04:34;8.40;99.90
16838;DHT22;19510;54.486;9.046;2024-02-21T04:07:02;8.40;99.90
16838;DHT22;19510;54.486;9.046;2024-02-21T04:09:32;8.40;99.90
16838;DHT22;19510;54.486;9.046;2024-02-21T04:12:01;8.40;99.90
16838;DHT22;19510;54.486;9.046;2024-02-21T04:14:27;8.50;99.90
16838;DHT22;19510;54.486;9.046;2024-02-21T04:16:55;8.50;99.90
16838;DHT22;19510;54.486;9.046;2024-02-21T04:19:23;8.40;99.90
16838;DHT22;19510;54.486;9.046;2024-02-21T04:21:49;8.40;99.90
16838;DHT22;19510;54.486;9.046;2024-02-21T04:24:16;8.40;99.90
16838;DHT22;19510;54.486;9.046;2024-02-21T04:26:42;8.40;99.90
16838;DHT22;19510;54.486;9.046;2024-02-21T04:29:11;8.40;99.90
16838;DHT22;19510;54.486;9.046;2024-02-21T04:31:37;8.40;99.90
16838;DHT22;19510;54.486;9.046;2024-02-21T04:34:05;8.40;99.90
16838;DHT22;19510;54.486;9.046;2024-02-21T04:36:34;8.40;99.90
16838;DHT22;19510;54.486;9.046;2024-02-21T04:38:59;8.30;99.90
16838;DHT22;19510;54.486;9.046;2024-02-21T04:41:25;8.30;99.90
16838;DHT22;19510;54.486;9.046;2024-02-21T04:43:50;8.40;99.90
16838;DHT22;19510;54.486;9.046;2024-02-21T04:46:18;8.30;99.90
16838;DHT22;19510;54.486;9.046;2024-02-21T04:48:44;8.20;99.90
16838;DHT22;19510;54.486;9.046;2024-02-21T04:51:12;8.10;99.90
16838;DHT22;19510;54.486;9.046;2024-02-21T04:53:41;8.10;99.90
16838;DHT22;19510;54.486;9.046;2024-02-21T04:56:07;8.10;99.90
16838;DHT22;19510;54.486;9.046;2024-02-21T04:58:38;8.10;99.90
16838;DHT22;19510;54.486;9.046;2024-02-21T05:01:04;8.00;99.90
16838;DHT22;19510;54.486;9.046;2024-02-21T05:03:30;8.00;99.90
16838;DHT22;19510;54.486;9.046;2024-02-21T05:05:59;8.00;99.90
16838;DHT22;19510;54.486;9.046;2024-02-21T05:08:27;8.00;99.90
16838;DHT22;19510;54.486;9.046;2024-02-21T05:10:53;8.00;99.90
16838;DHT22;19510;54.486;9.046;2024-02-21T05:13:19;7.90;99.90
16838;DHT22;19510;54.486;9.046;2024-02-21T05:15:47;7.90;99.90
16838;DHT22;19510;54.486;9.046;2024-02-21T05:18:13;7.90;99.90
16838;DHT22;19510;54.486;9.046;2024-02-21T05:20:38;7.80;99.90
16838;DHT22;19510;54.486;9.046;2024-02-21T05:23:04;7.90;99.90
16838;DHT22;19510;54.486;9.046;2024-02-21T05:25:30;7.80;99.90
16838;DHT22;19510;54.486;9.046;2024-02-21T05:27:55;7.80;99.90
16838;DHT22;19510;54.486;9.046;2024-02-21T05:30:21;7.80;99.90
16838;DHT22;19510;54.486;9.046;2024-02-21T05:32:49;7.80;99.90
16838;DHT22;19510;54.486;9.046;2024-02-21T05:35:15;7.80;99.90
16838;DHT22;19510;54.486;9.046;2024-02-21T05:37:43;7.70;99.90
16838;DHT22;19510;54.486;9.046;2024-02-21T05:40:12;7.70;99.90
16838;DHT22;19510;54.486;9.046;2024-02-21T05:42:38;7.70;99.90
16838;DHT22;19510;54.486;9.046;2024-02-21T05:45:04;7.70;99.90
16838;DHT22;19510;54.486;9.046;2024-02-21T05:47:30;7.60;99.90
16838;DHT22;19510;54.486;9.046;2024-02-21T05:49:58;7.60;99.90
16838;DHT22;19510;54.486;9.046;2024-02-21T05:52:26;7.60;99.90
16838;DHT22;19510;54.486;9.046;2024-02-21T05:54:54;7.60;99.90
16838;DHT22;19510;54.486;9.046;2024-02-21T05:57:20;7.60;99.90
16838;DHT22;19510;54.486;9.046;2024-02-21T05:59:46;7.60;99.90
16838;DHT22;19510;54.486;9.046;2024-02-21T06:02:14;7.50;99.90
16838;DHT22;19510;54.486;9.046;2024-02-21T06:04:42;7.50;99.90
16838;DHT22;19510;54.486;9.046;2024-02-21T06:07:08;7.50;99.90
16838;DHT22;19510;54.486;9.046;2024-02-21T06:09:34;7.50;99.90
16838;DHT22;19510;54.486;9.046;2024-02-21T06:12:00;7.40;99.90
16838;DHT22;19510;54.486;9.046;2024-02-21T06:14:27;7.40;99.90
16838;DHT22;19510;54.486;9.046;2024-02-21T06:16:53;7.40;99.90
16838;DHT22;19510;54.486;9.046;2024-02-21T06:19:19;7.40;99.90
16838;DHT22;19510;54.486;9.046;2024-02-21T06:21:49;7.30;99.90
16838;DHT22;19510;54.486;9.046;2024-02-21T06:24:15;7.30;99.90
16838;DHT22;19510;54.486;9.046;2024-02-21T06:26:43;7.30;99.90
16838;DHT22;19510;54.486;9.046;2024-02-21T06:29:27;7.30;99.90
16838;DHT22;19510;54.486;9.046;2024-02-21T06:32:04;7.30;99.90
16838;DHT22;19510;54.486;9.046;2024-02-21T06:34:33;7.30;99.90
16838;DHT22;19510;54.486;9.046;2024-02-21T06:36:58;7.20;99.90
16838;DHT22;19510;54.486;9.046;2024-02-21T06:39:24;7.20;99.90
16838;DHT22;19510;54.486;9.046;2024-02-21T06:41:50;7.20;99.90
16838;DHT22;19510;54.486;9.046;2024-02-21T06:44:19;7.20;99.90
16838;DHT22;19510;54.486;9.046;2024-02-21T06:46:45;7.20;99.90
16838;DHT22;19510;54.486;9.046;2024-02-21T06:49:11;7.10;99.90
16838;DHT22;19510;54.486;9.046;2024-02-21T06:51:43;7.10;99.90
16838;DHT22;19510;54.486;9.046;2024-02-21T06:54:11;7.10;99.90
16838;DHT22;19510;54.486;9.046;2024-02-21T06:56:40;7.20;99.90
16838;DHT22;19510;54.486;9.046;2024-02-21T06:59:06;7.20;99.90
16838;DHT22;19510;54.486;9.046;2024-02-21T07:01:31;7.20;99.90
16838;DHT22;19510;54.486;9.046;2024-02-21T07:03:57;7.20;99.90
16838;DHT22;19510;54.486;9.046;2024-02-21T07:06:23;7.10;99.90
16838;DHT22;19510;54.486;9.046;2024-02-21T07:08:49;7.10;99.90
16838;DHT22;19510;54.486;9.046;2024-02-21T07:11:15;7.20;99.90
16838;DHT22;19510;54.486;9.046;2024-02-21T07:13:41;7.10;99.90
16838;DHT22;19510;54.486;9.046;2024-02-21T07:16:09;7.10;99.90
16838;DHT22;19510;54.486;9.046;2024-02-21T07:18:37;7.10;99.90
16838;DHT22;19510;54.486;9.046;2024-02-21T07:21:03;7.10;99.90
16838;DHT22;19510;54.486;9.046;2024-02-21T07:23:28;7.10;99.90
16838;DHT22;19510;54.486;9.046;2024-02-21T07:25:54;7.20;99.90
16838;DHT22;19510;54.486;9.046;2024-02-21T07:28:20;7.10;99.90
16838;DHT22;19510;54.486;9.046;2024-02-21T07:30:48;7.20;99.90
16838;DHT22;19510;54.486;9.046;2024-02-21T07:33:14;7.20;99.90
16838;DHT22;19510;54.486;9.046;2024-02-21T07:35:42;7.20;99.90
16838;DHT22;19510;54.486;9.046;2024-02-21T07:38:12;7.20;99.90
16838;DHT22;19510;54.486;9.046;2024-02-21T07:40:38;7.20;99.90
16838;DHT22;19510;54.486;9.046;2024-02-21T07:43:04;7.30;99.90
16838;DHT22;19510;54.486;9.046;2024-02-21T07:45:30;7.30;99.90
16838;DHT22;19510;54.486;9.046;2024-02-21T07:47:55;7.30;99.90
16838;DHT22;19510;54.486;9.046;2024-02-21T07:50:21;7.40;99.90
16838;DHT22;19510;54.486;9.046;2024-02-21T07:52:51;7.40;99.90
16838;DHT22;19510;54.486;9.046;2024-02-21T07:55:17;7.40;99.90
16838;DHT22;19510;54.486;9.046;2024-02-21T07:57:43;7.40;99.90
16838;DHT22;19510;54.486;9.046;2024-02-21T08:00:09;7.40;99.90
16838;DHT22;19510;54.486;9.046;2024-02-21T08:02:39;7.40;99.90
16838;DHT22;19510;54.486;9.046;2024-02-21T08:05:10;7.40;99.90
16838;DHT22;19510;54.486;9.046;2024-02-21T08:07:38;7.50;99.90
16838;DHT22;19510;54.486;9.046;2024-02-21T08:10:04;7.50;99.90
16838;DHT22;19510;54.486;9.046;2024-02-21T08:12:30;7.60;99.90
16838;DHT22;19510;54.486;9.046;2024-02-21T08:14:58;7.60;99.90
16838;DHT22;19510;54.486;9.046;2024-02-21T08:17:23;7.60;99.90
16838;DHT22;19510;54.486;9.046;2024-02-21T08:19:51;7.60;99.90
16838;DHT22;19510;54.486;9.046;2024-02-21T08:22:18;7.60;99.90
16838;DHT22;19510;54.486;9.046;2024-02-21T08:24:44;7.70;99.90
16838;DHT22;19510;54.486;9.046;2024-02-21T08:27:09;7.70;99.90
16838;DHT22;19510;54.486;9.046;2024-02-21T08:29:37;7.70;99.90
16838;DHT22;19510;54.486;9.046;2024-02-21T08:32:03;7.80;99.90
16838;DHT22;19510;54.486;9.046;2024-02-21T08:34:31;7.80;99.90
16838;DHT22;19510;54.486;9.046;2024-02-21T08:37:02;7.90;99.90
16838;DHT22;19510;54.486;9.046;2024-02-21T08:39:28;7.90;99.90
16838;DHT22;19510;54.486;9.046;2024-02-21T08:41:56;7.90;99.90
16838;DHT22;19510;54.486;9.046;2024-02-21T08:44:27;8.00;99.90
16838;DHT22;19510;54.486;9.046;2024-02-21T08:46:55;8.00;99.90
16838;DHT22;19510;54.486;9.046;2024-02-21T08:49:23;8.10;99.90
16838;DHT22;19510;54.486;9.046;2024-02-21T08:51:51;8.10;99.90
16838;DHT22;19510;54.486;9.046;2024-02-21T08:54:19;8.20;99.90
16838;DHT22;19510;54.486;9.046;2024-02-21T08:56:45;8.20;99.90
16838;DHT22;19510;54.486;9.046;2024-02-21T08:59:10;8.20;99.90
16838;DHT22;19510;54.486;9.046;2024-02-21T09:01:36;8.30;99.90
16838;DHT22;19510;54.486;9.046;2024-02-21T09:04:06;8.30;99.90
16838;DHT22;19510;54.486;9.046;2024-02-21T09:06:33;8.30;99.90
16838;DHT22;19510;54.486;9.046;2024-02-21T09:09:04;8.30;99.90
16838;DHT22;19510;54.486;9.046;2024-02-21T09:11:29;8.30;99.90
16838;DHT22;19510;54.486;9.046;2024-02-21T09:13:55;8.40;99.90
16838;DHT22;19510;54.486;9.046;2024-02-21T09:16:21;8.40;99.90
16838;DHT22;19510;54.486;9.046;2024-02-21T09:18:47;8.40;99.90
16838;DHT22;19510;54.486;9.046;2024-02-21T09:21:13;8.40;99.90
16838;DHT22;19510;54.486;9.046;2024-02-21T09:23:38;8.50;99.90
16838;DHT22;19510;54.486;9.046;2024-02-21T09:26:06;8.50;99.90
16838;DHT22;19510;54.486;9.046;2024-02-21T09:28:33;8.50;99.90
16838;DHT22;19510;54.486;9.046;2024-02-21T09:30:59;8.60;99.90
16838;DHT22;19510;54.486;9.046;2024-02-21T09:33:25;8.60;99.90
16838;DHT22;19510;54.486;9.046;2024-02-21T09:35:53;8.60;99.90
16838;DHT22;19510;54.486;9.046;2024-02-21T09:38:19;8.70;99.90
16838;DHT22;19510;54.486;9.046;2024-02-21T09:40:47;8.70;99.90
16838;DHT22;19510;54.486;9.046;2024-02-21T09:43:17;8.80;99.90
16838;DHT22;19510;54.486;9.046;2024-02-21T09:45:46;8.80;99.90
16838;DHT22;19510;54.486;9.046;2024-02-21T09:48:25;8.90;99.90
16838;DHT22;19510;54.486;9.046;2024-02-21T09:50:56;8.90;99.90
16838;DHT22;19510;54.486;9.046;2024-02-21T09:53:25;8.90;99.90
16838;DHT22;19510;54.486;9.046;2024-02-21T09:55:52;9.00;99.90
16838;DHT22;19510;54.486;9.046;2024-02-21T09:58:18;9.00;99.90
16838;DHT22;19510;54.486;9.046;2024-02-21T10:00:44;9.00;99.90
16838;DHT22;19510;54.486;9.046;2024-02-21T10:03:10;9.00;99.90
16838;DHT22;19510;54.486;9.046;2024-02-21T10:05:36;9.10;99.90
16838;DHT22;19510;54.486;9.046;2024-02-21T10:08:03;9.10;99.90
16838;DHT22;19510;54.486;9.046;2024-02-21T10:10:31;9.20;99.90
16838;DHT22;19510;54.486;9.046;2024-02-21T10:13:07;9.20;99.90
16838;DHT22;19510;54.486;9.046;2024-02-21T10:15:35;9.20;99.90
16838;DHT22;19510;54.486;9.046;2024-02-21T10:18:04;9.20;99.90
16838;DHT22;19510;54.486;9.046;2024-02-21T10:20:34;9.30;99.90
16838;DHT22;19510;54.486;9.046;2024-02-21T10:23:04;9.30;99.90
16838;DHT22;19510;54.486;9.046;2024-02-21T10:25:34;9.30;99.90
16838;DHT22;19510;54.486;9.046;2024-02-21T10:28:01;9.30;99.90
16838;DHT22;19510;54.486;9.046;2024-02-21T10:30:27;9.40;99.90
16838;DHT22;19510;54.486;9.046;2024-02-21T10:32:53;9.40;99.90
16838;DHT22;19510;54.486;9.046;2024-02-21T10:35:32;9.50;99.90
16838;DHT22;19510;54.486;9.046;2024-02-21T10:37:59;9.50;99.90
16838;DHT22;19510;54.486;9.046;2024-02-21T10:40:31;9.50;99.90
16838;DHT22;19510;54.486;9.046;2024-02-21T10:43:03;9.50;99.90
16838;DHT22;19510;54.486;9.046;2024-02-21T10:45:35;9.50;99.90
16838;DHT22;19510;54.486;9.046;2024-02-21T10:48:11;9.50;99.90
16838;DHT22;19510;54.486;9.046;2024-02-21T10:50:52;9.50;99.90
16838;DHT22;19510;54.486;9.046;2024-02-21T10:56:32;9.60;99.90
16838;DHT22;19510;54.486;9.046;2024-02-21T10:59:08;9.60;99.90
16838;DHT22;19510;54.486;9.046;2024-02-21T11:01:34;9.60;99.90
16838;DHT22;19510;54.486;9.046;2024-02-21T11:04:08;9.60;99.90
16838;DHT22;19510;54.486;9.046;2024-02-21T11:06:40;9.60;99.90
16838;DHT22;19510;54.486;9.046;2024-02-21T11:09:12;9.60;99.90
16838;DHT22;19510;54.486;9.046;2024-02-21T11:11:40;9.70;99.90
16838;DHT22;19510;54.486;9.046;2024-02-21T11:14:10;9.70;99.90
16838;DHT22;19510;54.486;9.046;2024-02-21T11:16:40;9.70;99.90
16838;DHT22;19510;54.486;9.046;2024-02-21T11:19:19;9.80;99.90
16838;DHT22;19510;54.486;9.046;2024-02-21T11:21:48;9.70;99.90
16838;DHT22;19510;54.486;9.046;2024-02-21T11:24:13;9.80;99.90
16838;DHT22;19510;54.486;9.046;2024-02-21T11:26:41;9.80;99.90
16838;DHT22;19510;54.486;9.046;2024-02-21T11:29:07;9.80;99.90
16838;DHT22;19510;54.486;9.046;2024-02-21T11:31:42;9.80;99.90
16838;DHT22;19510;54.486;9.046;2024-02-21T11:34:17;9.80;99.90
16838;DHT22;19510;54.486;9.046;2024-02-21T11:37:02;9.80;99.90
16838;DHT22;19510;54.486;9.046;2024-02-21T11:39:38;9.70;99.90
16838;DHT22;19510;54.486;9.046;2024-02-21T11:42:08;9.70;99.90
16838;DHT22;19510;54.486;9.046;2024-02-21T11:44:39;9.70;99.90
16838;DHT22;19510;54.486;9.046;2024-02-21T11:47:06;9.70;99.90
16838;DHT22;19510;54.486;9.046;2024-02-21T11:49:37;9.70;99.90
16838;DHT22;19510;54.486;9.046;2024-02-21T11:52:09;9.70;99.90
16838;DHT22;19510;54.486;9.046;2024-02-21T11:54:37;9.70;99.90
16838;DHT22;19510;54.486;9.046;2024-02-21T11:57:05;9.70;99.90
16838;DHT22;19510;54.486;9.046;2024-02-21T11:59:33;9.80;99.90
16838;DHT22;19510;54.486;9.046;2024-02-21T12:02:02;9.80;99.90
16838;DHT22;19510;54.486;9.046;2024-02-21T12:04:30;9.80;99.90
16838;DHT22;19510;54.486;9.046;2024-02-21T12:06:57;9.70;99.90
16838;DHT22;19510;54.486;9.046;2024-02-21T12:09:24;9.70;99.90
16838;DHT22;19510;54.486;9.046;2024-02-21T12:12:04;9.80;99.90
16838;DHT22;19510;54.486;9.046;2024-02-21T12:14:34;9.70;99.90
16838;DHT22;19510;54.486;9.046;2024-02-21T12:17:03;9.70;99.90
16838;DHT22;19510;54.486;9.046;2024-02-21T12:19:33;9.70;99.90
16838;DHT22;19510;54.486;9.046;2024-02-21T12:22:00;9.70;99.90
16838;DHT22;19510;54.486;9.046;2024-02-21T12:24:29;9.70;99.90
16838;DHT22;19510;54.486;9.046;2024-02-21T12:26:55;9.70;99.90
16838;DHT22;19510;54.486;9.046;2024-02-21T12:29:23;9.70;99.90
16838;DHT22;19510;54.486;9.046;2024-02-21T12:31:52;9.70;99.90
16838;DHT22;19510;54.486;9.046;2024-02-21T12:34:19;9.70;99.90
16838;DHT22;19510;54.486;9.046;2024-02-21T12:36:45;9.70;99.90
16838;DHT22;19510;54.486;9.046;2024-02-21T12:39:14;9.70;99.90
16838;DHT22;19510;54.486;9.046;2024-02-21T12:41:43;9.70;99.90
16838;DHT22;19510;54.486;9.046;2024-02-21T12:44:10;9.70;99.90
16838;DHT22;19510;54.486;9.046;2024-02-21T12:46:39;9.70;99.90
16838;DHT22;19510;54.486;9.046;2024-02-21T12:49:08;9.70;99.90
16838;DHT22;19510;54.486;9.046;2024-02-21T12:51:36;9.60;99.90
16838;DHT22;19510;54.486;9.046;2024-02-21T12:54:05;9.50;99.90
16838;DHT22;19510;54.486;9.046;2024-02-21T12:56:31;9.50;99.90
16838;DHT22;19510;54.486;9.046;2024-02-21T12:58:57;9.50;99.90
16838;DHT22;19510;54.486;9.046;2024-02-21T13:01:23;9.50;99.90
16838;DHT22;19510;54.486;9.046;2024-02-21T13:03:51;9.40;99.90
16838;DHT22;19510;54.486;9.046;2024-02-21T13:06:17;9.50;99.90
16838;DHT22;19510;54.486;9.046;2024-02-21T13:08:44;9.50;99.90
16838;DHT22;19510;54.486;9.046;2024-02-21T13:11:12;9.50;99.90
16838;DHT22;19510;54.486;9.046;2024-02-21T13:13:43;9.50;99.90
16838;DHT22;19510;54.486;9.046;2024-02-21T13:16:11;9.50;99.90
16838;DHT22;19510;54.486;9.046;2024-02-21T13:18:39;9.50;99.90
16838;DHT22;19510;54.486;9.046;2024-02-21T13:21:08;9.50;99.90
16838;DHT22;19510;54.486;9.046;2024-02-21T13:23:33;9.50;99.90
16838;DHT22;19510;54.486;9.046;2024-02-21T13:25:59;9.50;99.90
16838;DHT22;19510;54.486;9.046;2024-02-21T13:28:25;9.50;99.90
16838;DHT22;19510;54.486;9.046;2024-02-21T13:30:50;9.50;99.90
16838;DHT22;19510;54.486;9.046;2024-02-21T13:33:18;9.50;99.90
16838;DHT22;19510;54.486;9.046;2024-02-21T13:35:44;9.50;99.90
16838;DHT22;19510;54.486;9.046;2024-02-21T13:38:10;9.50;99.90
16838;DHT22;19510;54.486;9.046;2024-02-21T13:40:37;9.50;99.90
16838;DHT22;19510;54.486;9.046;2024-02-21T13:43:03;9.40;99.90
16838;DHT22;19510;54.486;9.046;2024-02-21T13:45:31;9.50;99.90
16838;DHT22;19510;54.486;9.046;2024-02-21T13:47:57;9.40;99.90
16838;DHT22;19510;54.486;9.046;2024-02-21T13:50:30;9.40;99.90
16838;DHT22;19510;54.486;9.046;2024-02-21T13:53:10;9.40;99.90
16838;DHT22;19510;54.486;9.046;2024-02-21T13:55:40;9.40;99.90
16838;DHT22;19510;54.486;9.046;2024-02-21T13:58:09;9.40;99.90
16838;DHT22;19510;54.486;9.046;2024-02-21T14:00:36;9.40;99.90
16838;DHT22;19510;54.486;9.046;2024-02-21T14:03:03;9.50;99.90
16838;DHT22;19510;54.486;9.046;2024-02-21T14:05:29;9.40;99.90
16838;DHT22;19510;54.486;9.046;2024-02-21T14:07:54;9.40;99.90
16838;DHT22;19510;54.486;9.046;2024-02-21T14:10:21;9.40;99.90
16838;DHT22;19510;54.486;9.046;2024-02-21T14:12:49;9.40;99.90
16838;DHT22;19510;54.486;9.046;2024-02-21T14:15:15;9.40;99.90
16838;DHT22;19510;54.486;9.046;2024-02-21T14:17:49;9.40;99.90
16838;DHT22;19510;54.486;9.046;2024-02-21T14:20:15;9.40;99.90
16838;DHT22;19510;54.486;9.046;2024-02-21T14:22:41;9.40;99.90
16838;DHT22;19510;54.486;9.046;2024-02-21T14:25:09;9.40;99.90
16838;DHT22;19510;54.486;9.046;2024-02-21T14:27:35;9.40;99.90
16838;DHT22;19510;54.486;9.046;2024-02-21T14:30:04;9.40;99.90
16838;DHT22;19510;54.486;9.046;2024-02-21T14:32:34;9.40;99.90
16838;DHT22;19510;54.486;9.046;2024-02-21T14:35:00;9.40;99.90
16838;DHT22;19510;54.486;9.046;2024-02-21T14:37:26;9.40;99.90
16838;DHT22;19510;54.486;9.046;2024-02-21T14:39:54;9.40;99.90
16838;DHT22;19510;54.486;9.046;2024-02-21T14:42:19;9.40;99.90
16838;DHT22;19510;54.486;9.046;2024-02-21T14:44:47;9.40;99.90
16838;DHT22;19510;54.486;9.046;2024-02-21T14:47:13;9.40;99.90
16838;DHT22;19510;54.486;9.046;2024-02-21T14:49:39;9.40;99.90
16838;DHT22;19510;54.486;9.046;2024-02-21T14:52:04;9.40;99.90
16838;DHT22;19510;54.486;9.046;2024-02-21T14:54:30;9.40;99.90
16838;DHT22;19510;54.486;9.046;2024-02-21T14:56:56;9.40;99.90
16838;DHT22;19510;54.486;9.046;2024-02-21T14:59:21;9.40;99.90
16838;DHT22;19510;54.486;9.046;2024-02-21T15:01:52;9.50;99.90
16838;DHT22;19510;54.486;9.046;2024-02-21T15:04:18;9.50;99.90
16838;DHT22;19510;54.486;9.046;2024-02-21T15:06:43;9.40;99.90
16838;DHT22;19510;54.486;9.046;2024-02-21T15:09:10;9.40;99.90
16838;DHT22;19510;54.486;9.046;2024-02-21T15:11:37;9.50;99.90
16838;DHT22;19510;54.486;9.046;2024-02-21T15:14:03;9.50;99.90
16838;DHT22;19510;54.486;9.046;2024-02-21T15:16:33;9.60;99.90
16838;DHT22;19510;54.486;9.046;2024-02-21T15:19:04;9.60;99.90
16838;DHT22;19510;54.486;9.046;2024-02-21T15:21:29;9.60;99.90
16838;DHT22;19510;54.486;9.046;2024-02-21T15:23:56;9.60;99.90
16838;DHT22;19510;54.486;9.046;2024-02-21T15:26:22;9.60;99.90
16838;DHT22;19510;54.486;9.046;2024-02-21T15:28:48;9.60;99.90
16838;DHT22;19510;54.486;9.046;2024-02-21T15:31:22;9.60;99.90
16838;DHT22;19510;54.486;9.046;2024-02-21T15:33:54;9.60;99.90
16838;DHT22;19510;54.486;9.046;2024-02-21T15:36:20;9.60;99.90
16838;DHT22;19510;54.486;9.046;2024-02-21T15:38:46;9.50;99.90
16838;DHT22;19510;54.486;9.046;2024-02-21T15:41:14;9.50;99.90
16838;DHT22;19510;54.486;9.046;2024-02-21T15:43:43;9.60;99.90
16838;DHT22;19510;54.486;9.046;2024-02-21T15:46:11;9.60;99.90
16838;DHT22;19510;54.486;9.046;2024-02-21T15:48:40;9.60;99.90
16838;DHT22;19510;54.486;9.046;2024-02-21T15:51:06;9.60;99.90